sensor_id;sensor_type;location;lat;lon;timestamp;temperature;humidity
33271;DHT22;53180;51.344;6.152;2022-11-11T00:02:14;9.20;86.10
33271;DHT22;53180;51.344;6.152;2022-11-11T00:04:42;9.10;86.20
33271;DHT22;53180;51.344;6.152;2022-11-11T00:07:10;9.10;86.20
33271;DHT22;53180;51.344;6.152;2022-11-11T00:09:39;9.00;86.40
33271;DHT22;53180;51.344;6.152;2022-11-11T00:12:07;9.00;86.50
33271;DHT22;53180;51.344;6.152;2022-11-11T00:14:35;9.00;86.60
33271;DHT22;53180;51.344;6.152;2022-11-11T00:17:05;9.00;86.50
33271;DHT22;53180;51.344;6.152;2022-11-11T00:19:51;9.00;86.50
33271;DHT22;53180;51.344;6.152;2022-11-11T00:22:50;8.90;86.60
33271;DHT22;53180;51.344;6.152;2022-11-11T00:25:36;8.90;86.60
33271;DHT22;53180;51.344;6.152;2022-11-11T00:28:04;8.80;86.70
33271;DHT22;53180;51.344;6.152;2022-11-11T00:30:33;8.80;86.70
33271;DHT22;53180;51.344;6.152;2022-11-11T00:33:02;8.70;86.90
33271;DHT22;53180;51.344;6.152;2022-11-11T00:35:31;8.70;87.20
33271;DHT22;53180;51.344;6.152;2022-11-11T00:38:17;8.70;87.20
33271;DHT22;53180;51.344;6.152;2022-11-11T00:40:59;8.70;87.30
33271;DHT22;53180;51.344;6.152;2022-11-11T00:43:28;8.70;87.10
33271;DHT22;53180;51.344;6.152;2022-11-11T00:45:56;8.70;87.30
33271;DHT22;53180;51.344;6.152;2022-11-11T00:48:54;8.70;87.30
33271;DHT22;53180;51.344;6.152;2022-11-11T00:51:40;8.70;87.20
33271;DHT22;53180;51.344;6.152;2022-11-11T00:54:08;8.60;87.00
33271;DHT22;53180;51.344;6.152;2022-11-11T00:56:37;8.60;86.90
33271;DHT22;53180;51.344;6.152;2022-11-11T00:59:07;8.60;86.80
33271;DHT22;53180;51.344;6.152;2022-11-11T01:01:36;8.50;87.00
33271;DHT22;53180;51.344;6.152;2022-11-11T01:04:06;8.50;87.20
33271;DHT22;53180;51.344;6.152;2022-11-11T01:06:35;8.50;87.30
33271;DHT22;53180;51.344;6.152;2022-11-11T01:09:04;8.40;87.20
33271;DHT22;53180;51.344;6.152;2022-11-11T01:11:34;8.40;87.20
33271;DHT22;53180;51.344;6.152;2022-11-11T01:14:02;8.30;87.00
33271;DHT22;53180;51.344;6.152;2022-11-11T01:16:31;8.30;87.20
33271;DHT22;53180;51.344;6.152;2022-11-11T01:18:59;8.30;87.10
33271;DHT22;53180;51.344;6.152;2022-11-11T01:21:29;8.30;87.20
33271;DHT22;53180;51.344;6.152;2022-11-11T01:23:57;8.20;87.00
33271;DHT22;53180;51.344;6.152;2022-11-11T01:26:27;8.20;87.10
33271;DHT22;53180;51.344;6.152;2022-11-11T01:28:58;8.20;87.30
33271;DHT22;53180;51.344;6.152;2022-11-11T01:31:26;8.10;87.40
33271;DHT22;53180;51.344;6.152;2022-11-11T01:33:55;8.10;87.30
33271;DHT22;53180;51.344;6.152;2022-11-11T01:36:25;8.10;87.40
33271;DHT22;53180;51.344;6.152;2022-11-11T01:38:58;8.00;87.50
33271;DHT22;53180;51.344;6.152;2022-11-11T01:41:29;8.00;87.00
33271;DHT22;53180;51.344;6.152;2022-11-11T01:44:16;7.90;87.20
33271;DHT22;53180;51.344;6.152;2022-11-11T01:46:48;7.80;86.90
33271;DHT22;53180;51.344;6.152;2022-11-11T01:49:26;7.70;87.20
33271;DHT22;53180;51.344;6.152;2022-11-11T01:52:02;7.70;87.20
33271;DHT22;53180;51.344;6.152;2022-11-11T01:54:37;7.60;87.50
33271;DHT22;53180;51.344;6.152;2022-11-11T01:57:11;7.50;87.80
33271;DHT22;53180;51.344;6.152;2022-11-11T01:59:46;7.50;87.70
33271;DHT22;53180;51.344;6.152;2022-11-11T02:02:19;7.60;87.70
33271;DHT22;53180;51.344;6.152;2022-11-11T02:04:50;7.60;87.80
33271;DHT22;53180;51.344;6.152;2022-11-11T02:07:38;7.60;88.00
33271;DHT22;53180;51.344;6.152;2022-11-11T02:10:09;7.50;88.00
33271;DHT22;53180;51.344;6.152;2022-11-11T02:12:37;7.50;88.10
33271;DHT22;53180;51.344;6.152;2022-11-11T02:15:22;7.50;88.10
33271;DHT22;53180;51.344;6.152;2022-11-11T02:17:51;7.40;88.10
33271;DHT22;53180;51.344;6.152;2022-11-11T02:20:22;7.50;88.50
33271;DHT22;53180;51.344;6.152;2022-11-11T02:22:55;7.40;88.40
33271;DHT22;53180;51.344;6.152;2022-11-11T02:25:30;7.40;88.30
33271;DHT22;53180;51.344;6.152;2022-11-11T02:28:03;7.50;88.60
33271;DHT22;53180;51.344;6.152;2022-11-11T02:30:33;7.40;88.50
33271;DHT22;53180;51.344;6.152;2022-11-11T02:33:01;7.50;88.70
33271;DHT22;53180;51.344;6.152;2022-11-11T02:35:31;7.40;88.50
33271;DHT22;53180;51.344;6.152;2022-11-11T02:38:03;7.40;88.20
33271;DHT22;53180;51.344;6.152;2022-11-11T02:40:37;7.40;88.10
33271;DHT22;53180;51.344;6.152;2022-11-11T02:43:29;7.30;88.10
33271;DHT22;53180;51.344;6.152;2022-11-11T02:45:58;7.30;88.40
33271;DHT22;53180;51.344;6.152;2022-11-11T02:48:28;7.20;88.40
33271;DHT22;53180;51.344;6.152;2022-11-11T02:50:57;7.20;88.10
33271;DHT22;53180;51.344;6.152;2022-11-11T02:53:25;7.10;88.10
33271;DHT22;53180;51.344;6.152;2022-11-11T02:55:55;7.10;88.20
33271;DHT22;53180;51.344;6.152;2022-11-11T02:58:23;7.10;88.20
33271;DHT22;53180;51.344;6.152;2022-11-11T03:00:52;7.20;88.60
33271;DHT22;53180;51.344;6.152;2022-11-11T03:03:21;7.10;88.60
33271;DHT22;53180;51.344;6.152;2022-11-11T03:05:50;7.10;88.50
33271;DHT22;53180;51.344;6.152;2022-11-11T03:08:19;7.10;89.00
33271;DHT22;53180;51.344;6.152;2022-11-11T03:10:47;7.10;89.50
33271;DHT22;53180;51.344;6.152;2022-11-11T03:13:17;7.10;89.90
33271;DHT22;53180;51.344;6.152;2022-11-11T03:15:46;7.20;90.00
33271;DHT22;53180;51.344;6.152;2022-11-11T03:18:15;7.20;90.00
33271;DHT22;53180;51.344;6.152;2022-11-11T03:20:44;7.20;90.00
33271;DHT22;53180;51.344;6.152;2022-11-11T03:23:50;7.20;90.20
33271;DHT22;53180;51.344;6.152;2022-11-11T03:26:18;7.30;90.60
33271;DHT22;53180;51.344;6.152;2022-11-11T03:28:47;7.30;90.70
33271;DHT22;53180;51.344;6.152;2022-11-11T03:31:16;7.30;90.80
33271;DHT22;53180;51.344;6.152;2022-11-11T03:33:44;7.40;90.90
33271;DHT22;53180;51.344;6.152;2022-11-11T03:36:12;7.50;90.90
33271;DHT22;53180;51.344;6.152;2022-11-11T03:38:41;7.50;90.60
33271;DHT22;53180;51.344;6.152;2022-11-11T03:41:08;7.50;90.40
33271;DHT22;53180;51.344;6.152;2022-11-11T03:43:36;7.50;90.40
33271;DHT22;53180;51.344;6.152;2022-11-11T03:46:06;7.60;90.50
33271;DHT22;53180;51.344;6.152;2022-11-11T03:48:34;7.60;90.40
33271;DHT22;53180;51.344;6.152;2022-11-11T03:51:03;7.60;90.30
33271;DHT22;53180;51.344;6.152;2022-11-11T03:53:31;7.50;90.00
33271;DHT22;53180;51.344;6.152;2022-11-11T03:56:00;7.50;89.80
33271;DHT22;53180;51.344;6.152;2022-11-11T03:58:28;7.50;89.70
33271;DHT22;53180;51.344;6.152;2022-11-11T04:00:56;7.50;89.70
33271;DHT22;53180;51.344;6.152;2022-11-11T04:03:26;7.50;89.80
33271;DHT22;53180;51.344;6.152;2022-11-11T04:06:12;7.40;89.80
33271;DHT22;53180;51.344;6.152;2022-11-11T04:08:57;7.40;89.60
33271;DHT22;53180;51.344;6.152;2022-11-11T04:11:45;7.30;89.50
33271;DHT22;53180;51.344;6.152;2022-11-11T04:14:14;7.30;89.50
33271;DHT22;53180;51.344;6.152;2022-11-11T04:17:00;7.20;89.20
33271;DHT22;53180;51.344;6.152;2022-11-11T04:19:29;7.10;89.00
33271;DHT22;53180;51.344;6.152;2022-11-11T04:22:15;7.00;89.10
33271;DHT22;53180;51.344;6.152;2022-11-11T04:24:44;7.00;89.20
33271;DHT22;53180;51.344;6.152;2022-11-11T04:27:29;6.90;89.20
33271;DHT22;53180;51.344;6.152;2022-11-11T04:29:57;6.90;89.30
33271;DHT22;53180;51.344;6.152;2022-11-11T04:32:25;6.90;89.50
33271;DHT22;53180;51.344;6.152;2022-11-11T04:35:08;6.80;88.60
33271;DHT22;53180;51.344;6.152;2022-11-11T04:37:44;6.70;88.10
33271;DHT22;53180;51.344;6.152;2022-11-11T04:40:16;6.50;87.80
33271;DHT22;53180;51.344;6.152;2022-11-11T04:43:02;6.30;88.60
33271;DHT22;53180;51.344;6.152;2022-11-11T04:45:30;6.20;89.00
33271;DHT22;53180;51.344;6.152;2022-11-11T04:47:59;6.20;89.10
33271;DHT22;53180;51.344;6.152;2022-11-11T04:50:31;6.20;89.20
33271;DHT22;53180;51.344;6.152;2022-11-11T04:53:01;6.20;89.50
33271;DHT22;53180;51.344;6.152;2022-11-11T04:55:32;6.20;89.20
33271;DHT22;53180;51.344;6.152;2022-11-11T04:58:33;6.30;89.80
33271;DHT22;53180;51.344;6.152;2022-11-11T05:01:02;6.50;89.80
33271;DHT22;53180;51.344;6.152;2022-11-11T05:03:30;6.50;90.10
33271;DHT22;53180;51.344;6.152;2022-11-11T05:05:59;6.60;89.90
33271;DHT22;53180;51.344;6.152;2022-11-11T05:09:00;6.60;89.70
33271;DHT22;53180;51.344;6.152;2022-11-11T05:11:31;6.60;89.70
33271;DHT22;53180;51.344;6.152;2022-11-11T05:14:02;6.50;89.80
33271;DHT22;53180;51.344;6.152;2022-11-11T05:16:51;6.70;90.30
33271;DHT22;53180;51.344;6.152;2022-11-11T05:19:38;6.70;90.10
33271;DHT22;53180;51.344;6.152;2022-11-11T05:22:28;6.80;90.30
33271;DHT22;53180;51.344;6.152;2022-11-11T05:24:58;6.90;90.70
33271;DHT22;53180;51.344;6.152;2022-11-11T05:27:44;6.90;90.30
33271;DHT22;53180;51.344;6.152;2022-11-11T05:30:14;6.80;90.00
33271;DHT22;53180;51.344;6.152;2022-11-11T05:32:43;6.70;89.90
33271;DHT22;53180;51.344;6.152;2022-11-11T05:35:12;6.70;90.00
33271;DHT22;53180;51.344;6.152;2022-11-11T05:37:42;6.80;90.20
33271;DHT22;53180;51.344;6.152;2022-11-11T05:40:31;6.80;90.30
33271;DHT22;53180;51.344;6.152;2022-11-11T05:42:59;6.80;90.40
33271;DHT22;53180;51.344;6.152;2022-11-11T05:45:27;6.80;90.30
33271;DHT22;53180;51.344;6.152;2022-11-11T05:48:00;6.80;90.20
33271;DHT22;53180;51.344;6.152;2022-11-11T05:50:28;6.80;90.20
33271;DHT22;53180;51.344;6.152;2022-11-11T05:52:58;6.80;90.30
33271;DHT22;53180;51.344;6.152;2022-11-11T05:55:26;6.90;90.30
33271;DHT22;53180;51.344;6.152;2022-11-11T05:57:55;6.90;90.00
33271;DHT22;53180;51.344;6.152;2022-11-11T06:00:23;6.80;89.80
33271;DHT22;53180;51.344;6.152;2022-11-11T06:02:51;6.80;89.70
33271;DHT22;53180;51.344;6.152;2022-11-11T06:05:20;6.90;89.90
33271;DHT22;53180;51.344;6.152;2022-11-11T06:07:49;6.90;89.70
33271;DHT22;53180;51.344;6.152;2022-11-11T06:10:22;6.80;89.50
33271;DHT22;53180;51.344;6.152;2022-11-11T06:12:59;6.80;89.40
33271;DHT22;53180;51.344;6.152;2022-11-11T06:15:36;6.80;89.60
33271;DHT22;53180;51.344;6.152;2022-11-11T06:18:07;6.80;89.70
33271;DHT22;53180;51.344;6.152;2022-11-11T06:20:35;6.80;89.60
33271;DHT22;53180;51.344;6.152;2022-11-11T06:23:04;6.80;89.90
33271;DHT22;53180;51.344;6.152;2022-11-11T06:25:34;6.80;89.70
33271;DHT22;53180;51.344;6.152;2022-11-11T06:28:20;6.80;89.70
33271;DHT22;53180;51.344;6.152;2022-11-11T06:30:48;6.90;89.70
33271;DHT22;53180;51.344;6.152;2022-11-11T06:33:18;6.90;89.50
33271;DHT22;53180;51.344;6.152;2022-11-11T06:35:47;6.80;89.40
33271;DHT22;53180;51.344;6.152;2022-11-11T06:38:16;6.80;89.30
33271;DHT22;53180;51.344;6.152;2022-11-11T06:40:46;6.90;89.50
33271;DHT22;53180;51.344;6.152;2022-11-11T06:43:14;6.80;89.40
33271;DHT22;53180;51.344;6.152;2022-11-11T06:45:43;6.90;89.40
33271;DHT22;53180;51.344;6.152;2022-11-11T06:48:12;6.80;89.30
33271;DHT22;53180;51.344;6.152;2022-11-11T06:50:40;6.80;89.30
33271;DHT22;53180;51.344;6.152;2022-11-11T06:53:10;6.90;89.40
33271;DHT22;53180;51.344;6.152;2022-11-11T06:55:39;6.90;89.50
33271;DHT22;53180;51.344;6.152;2022-11-11T06:58:11;7.00;89.50
33271;DHT22;53180;51.344;6.152;2022-11-11T07:00:42;7.00;89.50
33271;DHT22;53180;51.344;6.152;2022-11-11T07:03:12;7.00;89.40
33271;DHT22;53180;51.344;6.152;2022-11-11T07:05:45;7.10;89.20
33271;DHT22;53180;51.344;6.152;2022-11-11T07:08:15;7.10;89.10
33271;DHT22;53180;51.344;6.152;2022-11-11T07:10:46;7.10;89.20
33271;DHT22;53180;51.344;6.152;2022-11-11T07:13:16;7.00;89.20
33271;DHT22;53180;51.344;6.152;2022-11-11T07:15:45;7.10;89.30
33271;DHT22;53180;51.344;6.152;2022-11-11T07:18:13;7.10;89.10
33271;DHT22;53180;51.344;6.152;2022-11-11T07:20:42;7.10;89.00
33271;DHT22;53180;51.344;6.152;2022-11-11T07:23:10;7.10;89.00
33271;DHT22;53180;51.344;6.152;2022-11-11T07:25:38;7.10;89.20
33271;DHT22;53180;51.344;6.152;2022-11-11T07:28:07;7.10;89.10
33271;DHT22;53180;51.344;6.152;2022-11-11T07:30:36;7.10;89.10
33271;DHT22;53180;51.344;6.152;2022-11-11T07:33:05;7.10;89.10
33271;DHT22;53180;51.344;6.152;2022-11-11T07:35:33;7.10;89.10
33271;DHT22;53180;51.344;6.152;2022-11-11T07:38:01;7.10;89.10
33271;DHT22;53180;51.344;6.152;2022-11-11T07:40:30;7.20;89.20
33271;DHT22;53180;51.344;6.152;2022-11-11T07:42:58;7.20;89.10
33271;DHT22;53180;51.344;6.152;2022-11-11T07:45:26;7.20;89.20
33271;DHT22;53180;51.344;6.152;2022-11-11T07:47:56;7.20;89.20
33271;DHT22;53180;51.344;6.152;2022-11-11T07:50:24;7.20;89.20
33271;DHT22;53180;51.344;6.152;2022-11-11T07:52:52;7.30;89.20
33271;DHT22;53180;51.344;6.152;2022-11-11T07:55:21;7.30;89.10
33271;DHT22;53180;51.344;6.152;2022-11-11T07:57:51;7.30;89.20
33271;DHT22;53180;51.344;6.152;2022-11-11T08:00:19;7.40;89.30
33271;DHT22;53180;51.344;6.152;2022-11-11T08:02:49;7.50;89.00
33271;DHT22;53180;51.344;6.152;2022-11-11T08:05:25;7.50;88.90
33271;DHT22;53180;51.344;6.152;2022-11-11T08:07:53;7.60;88.50
33271;DHT22;53180;51.344;6.152;2022-11-11T08:10:21;7.70;88.20
33271;DHT22;53180;51.344;6.152;2022-11-11T08:12:52;7.80;88.10
33271;DHT22;53180;51.344;6.152;2022-11-11T08:15:38;7.80;87.70
33271;DHT22;53180;51.344;6.152;2022-11-11T08:18:07;7.90;87.30
33271;DHT22;53180;51.344;6.152;2022-11-11T08:20:38;8.00;87.50
33271;DHT22;53180;51.344;6.152;2022-11-11T08:23:14;8.00;87.10
33271;DHT22;53180;51.344;6.152;2022-11-11T08:26:08;8.20;86.80
33271;DHT22;53180;51.344;6.152;2022-11-11T08:28:36;8.30;86.70
33271;DHT22;53180;51.344;6.152;2022-11-11T08:31:04;8.30;86.50
33271;DHT22;53180;51.344;6.152;2022-11-11T08:33:33;8.40;86.50
33271;DHT22;53180;51.344;6.152;2022-11-11T08:36:03;8.50;86.20
33271;DHT22;53180;51.344;6.152;2022-11-11T08:38:33;8.60;86.10
33271;DHT22;53180;51.344;6.152;2022-11-11T08:41:03;8.80;85.40
33271;DHT22;53180;51.344;6.152;2022-11-11T08:43:33;8.90;84.70
33271;DHT22;53180;51.344;6.152;2022-11-11T08:46:04;9.00;84.60
33271;DHT22;53180;51.344;6.152;2022-11-11T08:48:32;9.10;84.40
33271;DHT22;53180;51.344;6.152;2022-11-11T08:51:02;9.20;84.40
33271;DHT22;53180;51.344;6.152;2022-11-11T08:53:30;9.30;83.60
33271;DHT22;53180;51.344;6.152;2022-11-11T08:56:00;9.40;83.90
33271;DHT22;53180;51.344;6.152;2022-11-11T08:58:30;9.50;83.40
33271;DHT22;53180;51.344;6.152;2022-11-11T09:00:58;9.60;83.40
33271;DHT22;53180;51.344;6.152;2022-11-11T09:03:30;9.80;82.20
33271;DHT22;53180;51.344;6.152;2022-11-11T09:05:58;9.90;81.50
33271;DHT22;53180;51.344;6.152;2022-11-11T09:08:28;10.00;80.70
33271;DHT22;53180;51.344;6.152;2022-11-11T09:10:57;10.00;80.70
33271;DHT22;53180;51.344;6.152;2022-11-11T09:13:25;10.10;80.10
33271;DHT22;53180;51.344;6.152;2022-11-11T09:15:54;10.20;80.40
33271;DHT22;53180;51.344;6.152;2022-11-11T09:18:23;10.30;79.90
33271;DHT22;53180;51.344;6.152;2022-11-11T09:20:52;10.50;79.70
33271;DHT22;53180;51.344;6.152;2022-11-11T09:23:20;10.60;79.20
33271;DHT22;53180;51.344;6.152;2022-11-11T09:25:51;10.70;78.70
33271;DHT22;53180;51.344;6.152;2022-11-11T09:28:19;10.80;78.70
33271;DHT22;53180;51.344;6.152;2022-11-11T09:30:47;11.00;78.70
33271;DHT22;53180;51.344;6.152;2022-11-11T09:33:16;11.10;77.50
33271;DHT22;53180;51.344;6.152;2022-11-11T09:35:45;11.20;77.60
33271;DHT22;53180;51.344;6.152;2022-11-11T09:38:13;11.20;76.90
33271;DHT22;53180;51.344;6.152;2022-11-11T09:40:56;11.20;77.30
33271;DHT22;53180;51.344;6.152;2022-11-11T09:43:44;11.30;77.00
33271;DHT22;53180;51.344;6.152;2022-11-11T09:46:25;11.40;76.20
33271;DHT22;53180;51.344;6.152;2022-11-11T09:49:10;11.40;76.20
33271;DHT22;53180;51.344;6.152;2022-11-11T09:52:02;11.50;77.70
33271;DHT22;53180;51.344;6.152;2022-11-11T09:54:36;11.60;76.50
33271;DHT22;53180;51.344;6.152;2022-11-11T09:57:14;11.60;77.20
33271;DHT22;53180;51.344;6.152;2022-11-11T09:59:48;11.70;76.80
33271;DHT22;53180;51.344;6.152;2022-11-11T10:02:22;11.80;76.40
33271;DHT22;53180;51.344;6.152;2022-11-11T10:04:59;11.90;76.60
33271;DHT22;53180;51.344;6.152;2022-11-11T10:07:35;12.00;76.70
33271;DHT22;53180;51.344;6.152;2022-11-11T10:10:22;12.20;74.90
33271;DHT22;53180;51.344;6.152;2022-11-11T10:12:56;12.20;73.70
33271;DHT22;53180;51.344;6.152;2022-11-11T10:15:40;12.30;74.10
33271;DHT22;53180;51.344;6.152;2022-11-11T10:18:23;12.30;73.60
33271;DHT22;53180;51.344;6.152;2022-11-11T10:20:57;12.40;73.40
33271;DHT22;53180;51.344;6.152;2022-11-11T10:23:29;12.40;73.20
33271;DHT22;53180;51.344;6.152;2022-11-11T10:26:01;12.50;73.00
33271;DHT22;53180;51.344;6.152;2022-11-11T10:28:35;12.50;72.90
33271;DHT22;53180;51.344;6.152;2022-11-11T10:31:09;12.60;72.90
33271;DHT22;53180;51.344;6.152;2022-11-11T10:33:47;12.70;72.50
33271;DHT22;53180;51.344;6.152;2022-11-11T10:36:19;12.80;71.90
33271;DHT22;53180;51.344;6.152;2022-11-11T10:38:53;12.90;72.30
33271;DHT22;53180;51.344;6.152;2022-11-11T10:41:29;13.10;72.00
33271;DHT22;53180;51.344;6.152;2022-11-11T10:44:01;13.20;72.50
33271;DHT22;53180;51.344;6.152;2022-11-11T10:46:54;13.30;71.60
33271;DHT22;53180;51.344;6.152;2022-11-11T10:49:29;13.30;71.40
33271;DHT22;53180;51.344;6.152;2022-11-11T10:52:03;13.40;70.90
33271;DHT22;53180;51.344;6.152;2022-11-11T10:54:38;13.50;71.20
33271;DHT22;53180;51.344;6.152;2022-11-11T10:57:14;13.70;71.00
33271;DHT22;53180;51.344;6.152;2022-11-11T10:59:51;13.70;70.10
33271;DHT22;53180;51.344;6.152;2022-11-11T11:02:26;13.70;70.10
33271;DHT22;53180;51.344;6.152;2022-11-11T11:05:02;13.80;70.10
33271;DHT22;53180;51.344;6.152;2022-11-11T11:07:37;13.90;69.50
33271;DHT22;53180;51.344;6.152;2022-11-11T11:10:12;13.90;70.00
33271;DHT22;53180;51.344;6.152;2022-11-11T11:12:46;14.00;68.70
33271;DHT22;53180;51.344;6.152;2022-11-11T11:15:21;14.00;69.50
33271;DHT22;53180;51.344;6.152;2022-11-11T11:17:55;14.00;68.90
33271;DHT22;53180;51.344;6.152;2022-11-11T11:20:27;14.00;68.20
33271;DHT22;53180;51.344;6.152;2022-11-11T11:22:56;14.00;68.50
33271;DHT22;53180;51.344;6.152;2022-11-11T11:25:28;14.00;68.40
33271;DHT22;53180;51.344;6.152;2022-11-11T11:28:08;14.00;70.10
33271;DHT22;53180;51.344;6.152;2022-11-11T11:30:38;14.00;69.50
33271;DHT22;53180;51.344;6.152;2022-11-11T11:33:08;14.10;69.50
33271;DHT22;53180;51.344;6.152;2022-11-11T11:35:38;14.20;70.10
33271;DHT22;53180;51.344;6.152;2022-11-11T11:38:08;14.20;69.90
33271;DHT22;53180;51.344;6.152;2022-11-11T11:40:50;14.20;69.60
33271;DHT22;53180;51.344;6.152;2022-11-11T11:43:31;14.30;69.10
33271;DHT22;53180;51.344;6.152;2022-11-11T11:46:04;14.40;70.40
33271;DHT22;53180;51.344;6.152;2022-11-11T11:48:59;14.40;67.00
33271;DHT22;53180;51.344;6.152;2022-11-11T11:51:42;14.40;65.40
33271;DHT22;53180;51.344;6.152;2022-11-11T11:54:25;14.30;64.50
33271;DHT22;53180;51.344;6.152;2022-11-11T11:57:23;14.30;64.80
33271;DHT22;53180;51.344;6.152;2022-11-11T12:00:05;14.30;65.30
33271;DHT22;53180;51.344;6.152;2022-11-11T12:03:07;14.30;66.10
33271;DHT22;53180;51.344;6.152;2022-11-11T12:05:49;14.30;65.40
33271;DHT22;53180;51.344;6.152;2022-11-11T12:08:35;14.40;64.60
33271;DHT22;53180;51.344;6.152;2022-11-11T12:11:16;14.30;65.40
33271;DHT22;53180;51.344;6.152;2022-11-11T12:14:02;14.40;65.90
33271;DHT22;53180;51.344;6.152;2022-11-11T12:16:41;14.40;65.00
33271;DHT22;53180;51.344;6.152;2022-11-11T12:19:27;14.40;64.70
33271;DHT22;53180;51.344;6.152;2022-11-11T12:22:06;14.40;65.50
33271;DHT22;53180;51.344;6.152;2022-11-11T12:24:47;14.50;64.90
33271;DHT22;53180;51.344;6.152;2022-11-11T12:27:24;14.50;64.80
33271;DHT22;53180;51.344;6.152;2022-11-11T12:30:03;14.60;64.10
33271;DHT22;53180;51.344;6.152;2022-11-11T12:32:46;14.60;64.80
33271;DHT22;53180;51.344;6.152;2022-11-11T12:35:47;14.60;63.60
33271;DHT22;53180;51.344;6.152;2022-11-11T12:38:34;14.60;65.00
33271;DHT22;53180;51.344;6.152;2022-11-11T12:41:21;14.70;65.70
33271;DHT22;53180;51.344;6.152;2022-11-11T12:44:00;14.60;65.70
33271;DHT22;53180;51.344;6.152;2022-11-11T12:46:41;14.60;65.40
33271;DHT22;53180;51.344;6.152;2022-11-11T12:49:39;14.60;66.00
33271;DHT22;53180;51.344;6.152;2022-11-11T12:52:30;14.50;65.60
33271;DHT22;53180;51.344;6.152;2022-11-11T12:55:11;14.50;66.30
33271;DHT22;53180;51.344;6.152;2022-11-11T12:57:55;14.50;66.80
33271;DHT22;53180;51.344;6.152;2022-11-11T13:00:27;14.50;67.20
33271;DHT22;53180;51.344;6.152;2022-11-11T13:06:14;14.50;67.10
33271;DHT22;53180;51.344;6.152;2022-11-11T13:09:05;14.50;67.40
33271;DHT22;53180;51.344;6.152;2022-11-11T13:11:58;14.50;67.40
33271;DHT22;53180;51.344;6.152;2022-11-11T13:14:39;14.50;67.10
33271;DHT22;53180;51.344;6.152;2022-11-11T13:17:13;14.50;67.60
33271;DHT22;53180;51.344;6.152;2022-11-11T13:19:44;14.40;66.80
33271;DHT22;53180;51.344;6.152;2022-11-11T13:22:19;14.50;67.60
33271;DHT22;53180;51.344;6.152;2022-11-11T13:24:51;14.50;66.80
33271;DHT22;53180;51.344;6.152;2022-11-11T13:27:31;14.50;67.00
33271;DHT22;53180;51.344;6.152;2022-11-11T13:33:09;14.60;67.00
33271;DHT22;53180;51.344;6.152;2022-11-11T13:35:41;14.60;66.80
33271;DHT22;53180;51.344;6.152;2022-11-11T13:38:22;14.60;67.10
33271;DHT22;53180;51.344;6.152;2022-11-11T13:40:56;14.60;67.90
33271;DHT22;53180;51.344;6.152;2022-11-11T13:43:29;14.60;67.60
33271;DHT22;53180;51.344;6.152;2022-11-11T13:46:00;14.60;66.90
33271;DHT22;53180;51.344;6.152;2022-11-11T13:48:32;14.60;67.00
33271;DHT22;53180;51.344;6.152;2022-11-11T13:51:12;14.60;67.60
33271;DHT22;53180;51.344;6.152;2022-11-11T13:53:47;14.60;67.10
33271;DHT22;53180;51.344;6.152;2022-11-11T13:56:27;14.60;67.80
33271;DHT22;53180;51.344;6.152;2022-11-11T13:59:01;14.50;67.50
33271;DHT22;53180;51.344;6.152;2022-11-11T14:01:34;14.60;66.80
33271;DHT22;53180;51.344;6.152;2022-11-11T14:04:09;14.50;66.80
33271;DHT22;53180;51.344;6.152;2022-11-11T14:06:53;14.50;66.60
33271;DHT22;53180;51.344;6.152;2022-11-11T14:12:39;14.50;67.30
33271;DHT22;53180;51.344;6.152;2022-11-11T14:15:37;14.50;67.20
33271;DHT22;53180;51.344;6.152;2022-11-11T14:18:10;14.40;67.60
33271;DHT22;53180;51.344;6.152;2022-11-11T14:24:22;14.30;67.90
33271;DHT22;53180;51.344;6.152;2022-11-11T14:26:58;14.20;67.80
33271;DHT22;53180;51.344;6.152;2022-11-11T14:29:31;14.20;68.20
33271;DHT22;53180;51.344;6.152;2022-11-11T14:32:09;14.20;68.30
33271;DHT22;53180;51.344;6.152;2022-11-11T14:38:02;14.20;68.80
33271;DHT22;53180;51.344;6.152;2022-11-11T14:40:45;14.20;69.20
33271;DHT22;53180;51.344;6.152;2022-11-11T14:43:32;14.10;69.20
33271;DHT22;53180;51.344;6.152;2022-11-11T14:46:05;14.00;69.10
33271;DHT22;53180;51.344;6.152;2022-11-11T14:48:58;14.10;69.50
33271;DHT22;53180;51.344;6.152;2022-11-11T14:51:55;14.00;69.80
33271;DHT22;53180;51.344;6.152;2022-11-11T14:54:53;14.00;69.90
33271;DHT22;53180;51.344;6.152;2022-11-11T14:57:29;14.00;70.10
33271;DHT22;53180;51.344;6.152;2022-11-11T14:59:59;13.80;71.20
33271;DHT22;53180;51.344;6.152;2022-11-11T15:02:33;13.70;72.60
33271;DHT22;53180;51.344;6.152;2022-11-11T15:05:06;13.70;72.00
33271;DHT22;53180;51.344;6.152;2022-11-11T15:08:00;13.70;71.90
33271;DHT22;53180;51.344;6.152;2022-11-11T15:14:01;13.50;74.20
33271;DHT22;53180;51.344;6.152;2022-11-11T15:16:51;13.30;74.60
33271;DHT22;53180;51.344;6.152;2022-11-11T15:19:39;13.20;75.40
33271;DHT22;53180;51.344;6.152;2022-11-11T15:22:28;13.10;75.00
33271;DHT22;53180;51.344;6.152;2022-11-11T15:25:13;13.00;74.90
33271;DHT22;53180;51.344;6.152;2022-11-11T15:27:53;12.70;75.50
33271;DHT22;53180;51.344;6.152;2022-11-11T15:30:23;12.70;75.80
33271;DHT22;53180;51.344;6.152;2022-11-11T15:33:15;12.60;76.10
33271;DHT22;53180;51.344;6.152;2022-11-11T15:35:50;12.50;76.70
33271;DHT22;53180;51.344;6.152;2022-11-11T15:38:23;12.50;76.60
33271;DHT22;53180;51.344;6.152;2022-11-11T15:40:55;12.50;76.50
33271;DHT22;53180;51.344;6.152;2022-11-11T15:43:27;12.40;76.90
33271;DHT22;53180;51.344;6.152;2022-11-11T15:45:59;12.40;76.70
33271;DHT22;53180;51.344;6.152;2022-11-11T15:48:38;12.30;76.80
33271;DHT22;53180;51.344;6.152;2022-11-11T15:51:17;12.30;77.30
33271;DHT22;53180;51.344;6.152;2022-11-11T15:54:08;12.30;77.10
33271;DHT22;53180;51.344;6.152;2022-11-11T15:56:37;12.30;77.30
33271;DHT22;53180;51.344;6.152;2022-11-11T15:59:16;12.20;77.30
33271;DHT22;53180;51.344;6.152;2022-11-11T16:01:46;12.20;77.10
33271;DHT22;53180;51.344;6.152;2022-11-11T16:04:17;12.20;77.10
33271;DHT22;53180;51.344;6.152;2022-11-11T16:07:17;12.10;77.30
33271;DHT22;53180;51.344;6.152;2022-11-11T16:09:46;12.00;77.60
33271;DHT22;53180;51.344;6.152;2022-11-11T16:12:20;12.00;77.80
33271;DHT22;53180;51.344;6.152;2022-11-11T16:14:53;11.90;78.00
33271;DHT22;53180;51.344;6.152;2022-11-11T16:17:24;11.80;78.00
33271;DHT22;53180;51.344;6.152;2022-11-11T16:19:56;11.80;78.30
33271;DHT22;53180;51.344;6.152;2022-11-11T16:22:28;11.70;78.30
33271;DHT22;53180;51.344;6.152;2022-11-11T16:24:59;11.70;78.50
33271;DHT22;53180;51.344;6.152;2022-11-11T16:27:32;11.60;78.50
33271;DHT22;53180;51.344;6.152;2022-11-11T16:30:15;11.50;78.70
33271;DHT22;53180;51.344;6.152;2022-11-11T16:32:45;11.50;79.10
33271;DHT22;53180;51.344;6.152;2022-11-11T16:35:23;11.40;79.00
33271;DHT22;53180;51.344;6.152;2022-11-11T16:37:55;11.30;79.40
33271;DHT22;53180;51.344;6.152;2022-11-11T16:40:33;11.30;79.70
33271;DHT22;53180;51.344;6.152;2022-11-11T16:43:21;11.30;80.00
33271;DHT22;53180;51.344;6.152;2022-11-11T16:45:54;11.40;80.10
33271;DHT22;53180;51.344;6.152;2022-11-11T16:48:43;11.40;80.10